sensor_id;sensor_type;location;lat;lon;timestamp;P1;durP1;ratioP1;P2;durP2;ratioP2
23068;SDS011;11702;50.856;4.348;2023-02-04T00:02:22;17.25;;;11.52;;
23068;SDS011;11702;50.856;4.348;2023-02-04T00:04:48;20.88;;;12.15;;
23068;SDS011;11702;50.856;4.348;2023-02-04T00:07:18;20.25;;;11.75;;
23068;SDS011;11702;50.856;4.348;2023-02-04T00:09:44;18.58;;;12.23;;
23068;SDS011;11702;50.856;4.348;2023-02-04T00:12:11;25.00;;;12.48;;
23068;SDS011;11702;50.856;4.348;2023-02-04T00:14:40;20.05;;;11.65;;
23068;SDS011;11702;50.856;4.348;2023-02-04T00:17:05;17.90;;;11.77;;
23068;SDS011;11702;50.856;4.348;2023-02-04T00:19:35;23.60;;;11.80;;
23068;SDS011;11702;50.856;4.348;2023-02-04T00:22:01;24.52;;;11.52;;
23068;SDS011;11702;50.856;4.348;2023-02-04T00:24:28;18.50;;;11.00;;
23068;SDS011;11702;50.856;4.348;2023-02-04T00:26:55;25.88;;;11.43;;
23068;SDS011;11702;50.856;4.348;2023-02-04T00:29:23;19.88;;;11.40;;
23068;SDS011;11702;50.856;4.348;2023-02-04T00:31:48;20.40;;;11.88;;
23068;SDS011;11702;50.856;4.348;2023-02-04T00:34:14;18.50;;;11.20;;
23068;SDS011;11702;50.856;4.348;2023-02-04T00:36:40;22.30;;;11.52;;
23068;SDS011;11702;50.856;4.348;2023-02-04T00:39:05;20.35;;;10.70;;
23068;SDS011;11702;50.856;4.348;2023-02-04T00:41:31;17.40;;;10.55;;
23068;SDS011;11702;50.856;4.348;2023-02-04T00:43:56;20.90;;;10.05;;
23068;SDS011;11702;50.856;4.348;2023-02-04T00:46:22;19.90;;;11.10;;
23068;SDS011;11702;50.856;4.348;2023-02-04T00:48:48;17.45;;;10.73;;
23068;SDS011;11702;50.856;4.348;2023-02-04T00:51:13;16.70;;;10.63;;
23068;SDS011;11702;50.856;4.348;2023-02-04T00:53:39;26.55;;;10.80;;
23068;SDS011;11702;50.856;4.348;2023-02-04T00:56:04;21.05;;;10.55;;
23068;SDS011;11702;50.856;4.348;2023-02-04T00:58:30;19.80;;;10.95;;
23068;SDS011;11702;50.856;4.348;2023-02-04T01:00:56;22.63;;;10.98;;
23068;SDS011;11702;50.856;4.348;2023-02-04T01:03:22;21.60;;;10.80;;
23068;SDS011;11702;50.856;4.348;2023-02-04T01:05:47;18.08;;;11.25;;
23068;SDS011;11702;50.856;4.348;2023-02-04T01:08:13;19.15;;;11.63;;
23068;SDS011;11702;50.856;4.348;2023-02-04T01:10:38;20.70;;;11.85;;
23068;SDS011;11702;50.856;4.348;2023-02-04T01:13:06;20.75;;;12.18;;
23068;SDS011;11702;50.856;4.348;2023-02-04T01:15:33;20.15;;;13.07;;
23068;SDS011;11702;50.856;4.348;2023-02-04T01:17:59;22.02;;;12.60;;
23068;SDS011;11702;50.856;4.348;2023-02-04T01:20:24;23.95;;;13.75;;
23068;SDS011;11702;50.856;4.348;2023-02-04T01:22:50;24.38;;;13.60;;
23068;SDS011;11702;50.856;4.348;2023-02-04T01:25:16;22.13;;;14.05;;
23068;SDS011;11702;50.856;4.348;2023-02-04T01:27:42;26.17;;;15.13;;
23068;SDS011;11702;50.856;4.348;2023-02-04T01:30:09;24.35;;;15.18;;
23068;SDS011;11702;50.856;4.348;2023-02-04T01:32:36;26.65;;;15.38;;
23068;SDS011;11702;50.856;4.348;2023-02-04T01:35:01;30.95;;;16.77;;
23068;SDS011;11702;50.856;4.348;2023-02-04T01:37:27;33.28;;;18.45;;
23068;SDS011;11702;50.856;4.348;2023-02-04T01:39:53;36.25;;;16.80;;
23068;SDS011;11702;50.856;4.348;2023-02-04T01:42:24;32.45;;;17.90;;
23068;SDS011;11702;50.856;4.348;2023-02-04T01:44:50;27.33;;;17.90;;
23068;SDS011;11702;50.856;4.348;2023-02-04T01:47:17;33.67;;;17.33;;
23068;SDS011;11702;50.856;4.348;2023-02-04T01:49:43;28.20;;;17.90;;
23068;SDS011;11702;50.856;4.348;2023-02-04T01:52:10;32.45;;;18.45;;
23068;SDS011;11702;50.856;4.348;2023-02-04T01:54:44;38.55;;;19.05;;
23068;SDS011;11702;50.856;4.348;2023-02-04T01:57:12;33.83;;;18.35;;
23068;SDS011;11702;50.856;4.348;2023-02-04T01:59:42;34.10;;;18.88;;
23068;SDS011;11702;50.856;4.348;2023-02-04T02:05:04;37.10;;;19.30;;
23068;SDS011;11702;50.856;4.348;2023-02-04T02:07:33;36.40;;;19.45;;
23068;SDS011;11702;50.856;4.348;2023-02-04T02:09:59;34.75;;;20.08;;
23068;SDS011;11702;50.856;4.348;2023-02-04T02:12:26;40.53;;;22.40;;
23068;SDS011;11702;50.856;4.348;2023-02-04T02:14:57;38.78;;;22.27;;
23068;SDS011;11702;50.856;4.348;2023-02-04T02:17:24;40.55;;;21.60;;
23068;SDS011;11702;50.856;4.348;2023-02-04T02:19:50;42.95;;;23.13;;
23068;SDS011;11702;50.856;4.348;2023-02-04T02:22:18;40.38;;;22.05;;
23068;SDS011;11702;50.856;4.348;2023-02-04T02:24:51;42.90;;;22.75;;
23068;SDS011;11702;50.856;4.348;2023-02-04T02:27:16;43.50;;;23.13;;
23068;SDS011;11702;50.856;4.348;2023-02-04T02:29:42;46.88;;;23.40;;
23068;SDS011;11702;50.856;4.348;2023-02-04T02:32:08;41.30;;;21.67;;
23068;SDS011;11702;50.856;4.348;2023-02-04T02:34:37;41.58;;;23.10;;
23068;SDS011;11702;50.856;4.348;2023-02-04T02:37:04;45.85;;;24.17;;
23068;SDS011;11702;50.856;4.348;2023-02-04T02:39:32;49.15;;;24.30;;
23068;SDS011;11702;50.856;4.348;2023-02-04T02:41:59;47.95;;;23.70;;
23068;SDS011;11702;50.856;4.348;2023-02-04T02:44:24;47.08;;;23.38;;
23068;SDS011;11702;50.856;4.348;2023-02-04T02:46:51;46.75;;;23.00;;
23068;SDS011;11702;50.856;4.348;2023-02-04T02:49:18;48.10;;;25.25;;
23068;SDS011;11702;50.856;4.348;2023-02-04T02:51:45;45.92;;;23.48;;
23068;SDS011;11702;50.856;4.348;2023-02-04T02:54:14;42.28;;;22.00;;
23068;SDS011;11702;50.856;4.348;2023-02-04T02:56:48;46.13;;;23.40;;
23068;SDS011;11702;50.856;4.348;2023-02-04T02:59:14;46.65;;;22.20;;
23068;SDS011;11702;50.856;4.348;2023-02-04T03:01:41;50.25;;;24.65;;
23068;SDS011;11702;50.856;4.348;2023-02-04T03:04:08;43.88;;;23.08;;
23068;SDS011;11702;50.856;4.348;2023-02-04T03:06:34;43.50;;;22.65;;
23068;SDS011;11702;50.856;4.348;2023-02-04T03:09:01;39.67;;;20.67;;
23068;SDS011;11702;50.856;4.348;2023-02-04T03:11:26;39.88;;;20.70;;
23068;SDS011;11702;50.856;4.348;2023-02-04T03:13:54;42.53;;;22.05;;
23068;SDS011;11702;50.856;4.348;2023-02-04T03:16:21;41.03;;;19.90;;
23068;SDS011;11702;50.856;4.348;2023-02-04T03:18:47;39.50;;;19.50;;
23068;SDS011;11702;50.856;4.348;2023-02-04T03:21:16;43.00;;;20.63;;
23068;SDS011;11702;50.856;4.348;2023-02-04T03:23:41;37.30;;;19.27;;
23068;SDS011;11702;50.856;4.348;2023-02-04T03:26:09;35.78;;;18.65;;
23068;SDS011;11702;50.856;4.348;2023-02-04T03:28:39;33.88;;;19.05;;
23068;SDS011;11702;50.856;4.348;2023-02-04T03:31:06;39.78;;;19.45;;
23068;SDS011;11702;50.856;4.348;2023-02-04T03:33:31;36.50;;;18.80;;
23068;SDS011;11702;50.856;4.348;2023-02-04T03:35:59;35.03;;;18.38;;
23068;SDS011;11702;50.856;4.348;2023-02-04T03:38:25;35.50;;;19.42;;
23068;SDS011;11702;50.856;4.348;2023-02-04T03:40:51;38.00;;;18.48;;
23068;SDS011;11702;50.856;4.348;2023-02-04T03:43:20;36.67;;;18.67;;
23068;SDS011;11702;50.856;4.348;2023-02-04T03:45:45;41.53;;;19.33;;
23068;SDS011;11702;50.856;4.348;2023-02-04T03:48:11;38.83;;;18.83;;
23068;SDS011;11702;50.856;4.348;2023-02-04T03:50:37;38.67;;;18.83;;
23068;SDS011;11702;50.856;4.348;2023-02-04T03:53:03;39.15;;;19.80;;
23068;SDS011;11702;50.856;4.348;2023-02-04T03:55:28;39.58;;;22.70;;
23068;SDS011;11702;50.856;4.348;2023-02-04T03:57:56;41.05;;;21.00;;
23068;SDS011;11702;50.856;4.348;2023-02-04T04:00:22;40.97;;;22.48;;
23068;SDS011;11702;50.856;4.348;2023-02-04T04:02:48;33.13;;;21.05;;
23068;SDS011;11702;50.856;4.348;2023-02-04T04:05:13;34.47;;;20.27;;
23068;SDS011;11702;50.856;4.348;2023-02-04T04:07:39;32.85;;;18.70;;
23068;SDS011;11702;50.856;4.348;2023-02-04T04:10:05;31.42;;;17.83;;
23068;SDS011;11702;50.856;4.348;2023-02-04T04:12:31;30.73;;;18.77;;
23068;SDS011;11702;50.856;4.348;2023-02-04T04:14:58;29.80;;;17.27;;
23068;SDS011;11702;50.856;4.348;2023-02-04T04:17:24;32.53;;;18.48;;
23068;SDS011;11702;50.856;4.348;2023-02-04T04:19:49;33.65;;;18.55;;
23068;SDS011;11702;50.856;4.348;2023-02-04T04:22:15;28.88;;;16.67;;
23068;SDS011;11702;50.856;4.348;2023-02-04T04:24:41;26.95;;;16.85;;
23068;SDS011;11702;50.856;4.348;2023-02-04T04:27:06;27.95;;;16.48;;
23068;SDS011;11702;50.856;4.348;2023-02-04T04:29:32;24.52;;;14.65;;
23068;SDS011;11702;50.856;4.348;2023-02-04T04:31:58;25.58;;;15.02;;
23068;SDS011;11702;50.856;4.348;2023-02-04T04:34:23;28.50;;;16.15;;
23068;SDS011;11702;50.856;4.348;2023-02-04T04:36:49;29.10;;;15.57;;
23068;SDS011;11702;50.856;4.348;2023-02-04T04:39:15;25.85;;;13.98;;
23068;SDS011;11702;50.856;4.348;2023-02-04T04:41:41;26.33;;;15.75;;
23068;SDS011;11702;50.856;4.348;2023-02-04T04:44:06;23.40;;;14.85;;
23068;SDS011;11702;50.856;4.348;2023-02-04T04:46:32;26.75;;;15.13;;
23068;SDS011;11702;50.856;4.348;2023-02-04T04:49:00;21.95;;;14.43;;
23068;SDS011;11702;50.856;4.348;2023-02-04T04:51:26;22.10;;;13.77;;
23068;SDS011;11702;50.856;4.348;2023-02-04T04:53:55;26.58;;;14.52;;
23068;SDS011;11702;50.856;4.348;2023-02-04T04:56:21;22.48;;;13.93;;
23068;SDS011;11702;50.856;4.348;2023-02-04T04:58:46;23.45;;;14.00;;
23068;SDS011;11702;50.856;4.348;2023-02-04T05:01:12;25.52;;;14.40;;
23068;SDS011;11702;50.856;4.348;2023-02-04T05:03:38;25.45;;;14.85;;
23068;SDS011;11702;50.856;4.348;2023-02-04T05:06:07;22.10;;;14.52;;
23068;SDS011;11702;50.856;4.348;2023-02-04T05:08:33;23.10;;;14.15;;
23068;SDS011;11702;50.856;4.348;2023-02-04T05:11:00;24.58;;;14.38;;
23068;SDS011;11702;50.856;4.348;2023-02-04T05:13:28;23.60;;;13.25;;
23068;SDS011;11702;50.856;4.348;2023-02-04T05:15:54;26.13;;;14.68;;
23068;SDS011;11702;50.856;4.348;2023-02-04T05:18:19;22.35;;;13.95;;
23068;SDS011;11702;50.856;4.348;2023-02-04T05:20:45;28.20;;;15.63;;
23068;SDS011;11702;50.856;4.348;2023-02-04T05:23:11;22.88;;;14.27;;
23068;SDS011;11702;50.856;4.348;2023-02-04T05:25:36;23.35;;;13.18;;
23068;SDS011;11702;50.856;4.348;2023-02-04T05:28:02;21.58;;;13.40;;
23068;SDS011;11702;50.856;4.348;2023-02-04T05:30:28;24.10;;;13.75;;
23068;SDS011;11702;50.856;4.348;2023-02-04T05:32:54;20.08;;;12.63;;
23068;SDS011;11702;50.856;4.348;2023-02-04T05:35:19;22.05;;;13.05;;
23068;SDS011;11702;50.856;4.348;2023-02-04T05:37:45;22.02;;;13.75;;
23068;SDS011;11702;50.856;4.348;2023-02-04T05:40:11;24.73;;;14.23;;
23068;SDS011;11702;50.856;4.348;2023-02-04T05:42:37;24.55;;;14.50;;
23068;SDS011;11702;50.856;4.348;2023-02-04T05:45:03;26.15;;;14.88;;
23068;SDS011;11702;50.856;4.348;2023-02-04T05:47:29;25.98;;;15.20;;
23068;SDS011;11702;50.856;4.348;2023-02-04T05:49:54;27.42;;;15.23;;
23068;SDS011;11702;50.856;4.348;2023-02-04T05:52:20;24.13;;;13.48;;
23068;SDS011;11702;50.856;4.348;2023-02-04T05:54:45;30.90;;;15.77;;
23068;SDS011;11702;50.856;4.348;2023-02-04T05:57:11;25.52;;;14.63;;
23068;SDS011;11702;50.856;4.348;2023-02-04T05:59:37;28.27;;;16.13;;
23068;SDS011;11702;50.856;4.348;2023-02-04T06:02:02;29.25;;;17.02;;
23068;SDS011;11702;50.856;4.348;2023-02-04T06:04:28;22.35;;;14.63;;
23068;SDS011;11702;50.856;4.348;2023-02-04T06:06:54;24.25;;;15.40;;
23068;SDS011;11702;50.856;4.348;2023-02-04T06:09:19;25.85;;;15.82;;
23068;SDS011;11702;50.856;4.348;2023-02-04T06:11:45;23.80;;;15.00;;
23068;SDS011;11702;50.856;4.348;2023-02-04T06:14:13;27.98;;;16.13;;
23068;SDS011;11702;50.856;4.348;2023-02-04T06:16:38;26.73;;;16.08;;
23068;SDS011;11702;50.856;4.348;2023-02-04T06:19:04;26.98;;;15.50;;
23068;SDS011;11702;50.856;4.348;2023-02-04T06:21:29;26.90;;;15.88;;
23068;SDS011;11702;50.856;4.348;2023-02-04T06:23:55;25.13;;;15.48;;
23068;SDS011;11702;50.856;4.348;2023-02-04T06:26:21;28.63;;;15.02;;
23068;SDS011;11702;50.856;4.348;2023-02-04T06:28:46;26.05;;;15.20;;
23068;SDS011;11702;50.856;4.348;2023-02-04T06:31:12;29.45;;;16.33;;
23068;SDS011;11702;50.856;4.348;2023-02-04T06:33:40;28.13;;;16.17;;
23068;SDS011;11702;50.856;4.348;2023-02-04T06:36:06;29.83;;;15.95;;
23068;SDS011;11702;50.856;4.348;2023-02-04T06:38:31;31.27;;;16.90;;
23068;SDS011;11702;50.856;4.348;2023-02-04T06:40:57;28.83;;;15.55;;
23068;SDS011;11702;50.856;4.348;2023-02-04T06:43:22;33.67;;;16.33;;
23068;SDS011;11702;50.856;4.348;2023-02-04T06:45:49;29.73;;;14.80;;
23068;SDS011;11702;50.856;4.348;2023-02-04T06:48:15;35.47;;;16.77;;
23068;SDS011;11702;50.856;4.348;2023-02-04T06:50:42;32.38;;;16.55;;
23068;SDS011;11702;50.856;4.348;2023-02-04T06:53:08;34.83;;;16.15;;
23068;SDS011;11702;50.856;4.348;2023-02-04T06:55:33;33.45;;;15.57;;
23068;SDS011;11702;50.856;4.348;2023-02-04T06:57:59;35.45;;;16.20;;
23068;SDS011;11702;50.856;4.348;2023-02-04T07:00:25;34.72;;;15.75;;
23068;SDS011;11702;50.856;4.348;2023-02-04T07:02:50;32.88;;;16.90;;
23068;SDS011;11702;50.856;4.348;2023-02-04T07:05:16;31.63;;;15.85;;
23068;SDS011;11702;50.856;4.348;2023-02-04T07:07:42;34.38;;;16.55;;
23068;SDS011;11702;50.856;4.348;2023-02-04T07:10:10;33.50;;;17.20;;
23068;SDS011;11702;50.856;4.348;2023-02-04T07:12:37;33.08;;;15.02;;
23068;SDS011;11702;50.856;4.348;2023-02-04T07:15:05;33.95;;;16.55;;
23068;SDS011;11702;50.856;4.348;2023-02-04T07:19:59;35.45;;;16.15;;
23068;SDS011;11702;50.856;4.348;2023-02-04T07:22:25;34.53;;;16.92;;
23068;SDS011;11702;50.856;4.348;2023-02-04T07:24:50;27.52;;;14.77;;
23068;SDS011;11702;50.856;4.348;2023-02-04T07:27:19;34.78;;;16.05;;
23068;SDS011;11702;50.856;4.348;2023-02-04T07:29:47;26.35;;;13.65;;
23068;SDS011;11702;50.856;4.348;2023-02-04T07:32:13;23.67;;;13.27;;
23068;SDS011;11702;50.856;4.348;2023-02-04T07:34:41;28.40;;;14.50;;
23068;SDS011;11702;50.856;4.348;2023-02-04T07:37:12;24.02;;;13.70;;
23068;SDS011;11702;50.856;4.348;2023-02-04T07:39:41;20.38;;;11.40;;
23068;SDS011;11702;50.856;4.348;2023-02-04T07:42:06;22.80;;;12.15;;
23068;SDS011;11702;50.856;4.348;2023-02-04T07:44:39;26.38;;;13.73;;
23068;SDS011;11702;50.856;4.348;2023-02-04T07:47:05;27.15;;;13.52;;
23068;SDS011;11702;50.856;4.348;2023-02-04T07:49:31;26.27;;;13.88;;
23068;SDS011;11702;50.856;4.348;2023-02-04T07:51:56;27.38;;;13.95;;
23068;SDS011;11702;50.856;4.348;2023-02-04T07:54:22;25.42;;;13.38;;
23068;SDS011;11702;50.856;4.348;2023-02-04T07:56:48;26.60;;;14.32;;
23068;SDS011;11702;50.856;4.348;2023-02-04T07:59:13;24.50;;;13.32;;
23068;SDS011;11702;50.856;4.348;2023-02-04T08:01:39;28.90;;;14.32;;
23068;SDS011;11702;50.856;4.348;2023-02-04T08:04:12;29.05;;;14.27;;
23068;SDS011;11702;50.856;4.348;2023-02-04T08:06:40;29.13;;;14.05;;
23068;SDS011;11702;50.856;4.348;2023-02-04T08:09:05;26.95;;;13.85;;
23068;SDS011;11702;50.856;4.348;2023-02-04T08:11:33;23.88;;;13.02;;
23068;SDS011;11702;50.856;4.348;2023-02-04T08:13:59;28.30;;;14.18;;
23068;SDS011;11702;50.856;4.348;2023-02-04T08:16:25;31.40;;;13.68;;
23068;SDS011;11702;50.856;4.348;2023-02-04T08:18:50;28.85;;;14.73;;
23068;SDS011;11702;50.856;4.348;2023-02-04T08:21:18;25.23;;;13.25;;
23068;SDS011;11702;50.856;4.348;2023-02-04T08:23:44;27.85;;;14.80;;
23068;SDS011;11702;50.856;4.348;2023-02-04T08:26:10;28.98;;;14.82;;
23068;SDS011;11702;50.856;4.348;2023-02-04T08:28:36;28.63;;;15.07;;
23068;SDS011;11702;50.856;4.348;2023-02-04T08:31:05;27.30;;;14.90;;
23068;SDS011;11702;50.856;4.348;2023-02-04T08:33:31;25.98;;;13.35;;
23068;SDS011;11702;50.856;4.348;2023-02-04T08:35:57;23.85;;;13.75;;
23068;SDS011;11702;50.856;4.348;2023-02-04T08:38:22;22.10;;;12.35;;
23068;SDS011;11702;50.856;4.348;2023-02-04T08:40:48;22.02;;;12.88;;
23068;SDS011;11702;50.856;4.348;2023-02-04T08:43:13;22.85;;;12.30;;
23068;SDS011;11702;50.856;4.348;2023-02-04T08:45:39;23.58;;;11.65;;
23068;SDS011;11702;50.856;4.348;2023-02-04T08:48:05;23.83;;;12.13;;
23068;SDS011;11702;50.856;4.348;2023-02-04T08:50:32;19.27;;;11.05;;
23068;SDS011;11702;50.856;4.348;2023-02-04T08:53:00;22.23;;;11.50;;
23068;SDS011;11702;50.856;4.348;2023-02-04T08:55:26;22.20;;;11.68;;
23068;SDS011;11702;50.856;4.348;2023-02-04T08:57:51;16.60;;;10.65;;
23068;SDS011;11702;50.856;4.348;2023-02-04T09:00:17;19.77;;;10.95;;
23068;SDS011;11702;50.856;4.348;2023-02-04T09:02:45;14.10;;;9.13;;
23068;SDS011;11702;50.856;4.348;2023-02-04T09:05:11;17.50;;;10.70;;
23068;SDS011;11702;50.856;4.348;2023-02-04T09:07:37;18.15;;;10.82;;
23068;SDS011;11702;50.856;4.348;2023-02-04T09:10:02;14.85;;;9.68;;
23068;SDS011;11702;50.856;4.348;2023-02-04T09:12:28;18.52;;;10.95;;
23068;SDS011;11702;50.856;4.348;2023-02-04T09:14:54;15.82;;;9.77;;
23068;SDS011;11702;50.856;4.348;2023-02-04T09:17:19;15.23;;;9.60;;
23068;SDS011;11702;50.856;4.348;2023-02-04T09:19:45;14.23;;;9.35;;
23068;SDS011;11702;50.856;4.348;2023-02-04T09:22:11;13.20;;;9.23;;
23068;SDS011;11702;50.856;4.348;2023-02-04T09:24:37;15.73;;;10.43;;
23068;SDS011;11702;50.856;4.348;2023-02-04T09:27:03;11.15;;;7.68;;
23068;SDS011;11702;50.856;4.348;2023-02-04T09:29:29;14.63;;;8.65;;
23068;SDS011;11702;50.856;4.348;2023-02-04T09:31:54;13.77;;;8.70;;
23068;SDS011;11702;50.856;4.348;2023-02-04T09:34:20;15.63;;;8.90;;
23068;SDS011;11702;50.856;4.348;2023-02-04T09:36:46;14.88;;;9.60;;
23068;SDS011;11702;50.856;4.348;2023-02-04T09:39:11;13.25;;;9.18;;
23068;SDS011;11702;50.856;4.348;2023-02-04T09:41:37;10.50;;;6.90;;
23068;SDS011;11702;50.856;4.348;2023-02-04T09:44:08;12.68;;;6.60;;
23068;SDS011;11702;50.856;4.348;2023-02-04T09:46:38;12.40;;;6.25;;
23068;SDS011;11702;50.856;4.348;2023-02-04T09:49:07;12.32;;;6.68;;
23068;SDS011;11702;50.856;4.348;2023-02-04T09:51:36;9.73;;;6.22;;
23068;SDS011;11702;50.856;4.348;2023-02-04T09:54:06;13.20;;;7.25;;
23068;SDS011;11702;50.856;4.348;2023-02-04T09:56:36;10.27;;;7.13;;
23068;SDS011;11702;50.856;4.348;2023-02-04T09:59:14;9.80;;;7.20;;
23068;SDS011;11702;50.856;4.348;2023-02-04T10:01:42;10.88;;;7.43;;
23068;SDS011;11702;50.856;4.348;2023-02-04T10:04:09;8.23;;;5.70;;
23068;SDS011;11702;50.856;4.348;2023-02-04T10:06:39;8.20;;;5.50;;
23068;SDS011;11702;50.856;4.348;2023-02-04T10:09:16;11.48;;;6.07;;
23068;SDS011;11702;50.856;4.348;2023-02-04T10:11:49;9.77;;;6.05;;
23068;SDS011;11702;50.856;4.348;2023-02-04T10:14:18;9.45;;;6.72;;
23068;SDS011;11702;50.856;4.348;2023-02-04T10:16:48;11.57;;;7.07;;
23068;SDS011;11702;50.856;4.348;2023-02-04T10:19:18;8.85;;;6.47;;
23068;SDS011;11702;50.856;4.348;2023-02-04T10:21:44;10.18;;;6.63;;
23068;SDS011;11702;50.856;4.348;2023-02-04T10:24:20;8.73;;;6.22;;
23068;SDS011;11702;50.856;4.348;2023-02-04T10:26:50;10.23;;;6.07;;
23068;SDS011;11702;50.856;4.348;2023-02-04T10:29:18;5.63;;;4.70;;
23068;SDS011;11702;50.856;4.348;2023-02-04T10:31:52;8.40;;;5.63;;
23068;SDS011;11702;50.856;4.348;2023-02-04T10:34:22;7.60;;;5.20;;
23068;SDS011;11702;50.856;4.348;2023-02-04T10:36:59;5.53;;;4.55;;
23068;SDS011;11702;50.856;4.348;2023-02-04T10:39:40;4.88;;;3.65;;
23068;SDS011;11702;50.856;4.348;2023-02-04T10:42:26;4.95;;;3.88;;
23068;SDS011;11702;50.856;4.348;2023-02-04T10:44:53;5.60;;;4.43;;
23068;SDS011;11702;50.856;4.348;2023-02-04T10:47:19;4.40;;;3.65;;
23068;SDS011;11702;50.856;4.348;2023-02-04T10:52:22;5.22;;;4.10;;
23068;SDS011;11702;50.856;4.348;2023-02-04T10:54:54;4.97;;;3.92;;
23068;SDS011;11702;50.856;4.348;2023-02-04T10:57:25;7.03;;;4.35;;
23068;SDS011;11702;50.856;4.348;2023-02-04T10:59:55;4.97;;;4.22;;
23068;SDS011;11702;50.856;4.348;2023-02-04T11:05:10;6.43;;;5.57;;
23068;SDS011;11702;50.856;4.348;2023-02-04T11:07:38;7.00;;;5.28;;
23068;SDS011;11702;50.856;4.348;2023-02-04T11:10:04;7.82;;;5.80;;
23068;SDS011;11702;50.856;4.348;2023-02-04T11:12:40;7.72;;;6.20;;
23068;SDS011;11702;50.856;4.348;2023-02-04T11:20:44;10.20;;;7.13;;
23068;SDS011;11702;50.856;4.348;2023-02-04T11:25:42;12.43;;;9.15;;
23068;SDS011;11702;50.856;4.348;2023-02-04T11:28:15;13.85;;;9.25;;
23068;SDS011;11702;50.856;4.348;2023-02-04T11:30:59;12.68;;;8.95;;
23068;SDS011;11702;50.856;4.348;2023-02-04T11:33:37;12.18;;;8.32;;
23068;SDS011;11702;50.856;4.348;2023-02-04T11:36:07;16.40;;;9.85;;
23068;SDS011;11702;50.856;4.348;2023-02-04T11:38:35;16.48;;;10.32;;
23068;SDS011;11702;50.856;4.348;2023-02-04T11:41:01;13.55;;;9.02;;
23068;SDS011;11702;50.856;4.348;2023-02-04T11:43:27;12.90;;;8.77;;
23068;SDS011;11702;50.856;4.348;2023-02-04T11:46:05;11.55;;;8.20;;
23068;SDS011;11702;50.856;4.348;2023-02-04T11:48:42;15.88;;;9.30;;
23068;SDS011;11702;50.856;4.348;2023-02-04T11:51:17;15.80;;;9.95;;
23068;SDS011;11702;50.856;4.348;2023-02-04T11:53:49;12.85;;;9.02;;
23068;SDS011;11702;50.856;4.348;2023-02-04T11:56:16;16.80;;;10.32;;
23068;SDS011;11702;50.856;4.348;2023-02-04T11:58:43;15.88;;;9.57;;
23068;SDS011;11702;50.856;4.348;2023-02-04T12:01:16;18.20;;;9.75;;
23068;SDS011;11702;50.856;4.348;2023-02-04T12:03:56;15.48;;;9.50;;
23068;SDS011;11702;50.856;4.348;2023-02-04T12:06:30;14.80;;;9.20;;
23068;SDS011;11702;50.856;4.348;2023-02-04T12:09:19;12.93;;;8.85;;
23068;SDS011;11702;50.856;4.348;2023-02-04T12:11:55;14.48;;;8.93;;
23068;SDS011;11702;50.856;4.348;2023-02-04T12:14:27;18.45;;;8.60;;
23068;SDS011;11702;50.856;4.348;2023-02-04T12:16:56;19.55;;;10.32;;
23068;SDS011;11702;50.856;4.348;2023-02-04T12:19:21;16.15;;;9.15;;
23068;SDS011;11702;50.856;4.348;2023-02-04T12:21:47;15.23;;;6.70;;
23068;SDS011;11702;50.856;4.348;2023-02-04T12:24:13;16.98;;;9.98;;
23068;SDS011;11702;50.856;4.348;2023-02-04T12:26:38;15.35;;;8.20;;
23068;SDS011;11702;50.856;4.348;2023-02-04T12:29:06;13.38;;;7.70;;
23068;SDS011;11702;50.856;4.348;2023-02-04T12:31:35;18.98;;;8.85;;
23068;SDS011;11702;50.856;4.348;2023-02-04T12:34:08;16.38;;;8.25;;
23068;SDS011;11702;50.856;4.348;2023-02-04T12:36:36;17.35;;;8.32;;
23068;SDS011;11702;50.856;4.348;2023-02-04T12:39:02;18.10;;;8.75;;
23068;SDS011;11702;50.856;4.348;2023-02-04T12:41:28;16.45;;;9.25;;
23068;SDS011;11702;50.856;4.348;2023-02-04T12:43:54;19.27;;;10.20;;
23068;SDS011;11702;50.856;4.348;2023-02-04T12:46:20;14.27;;;8.30;;
23068;SDS011;11702;50.856;4.348;2023-02-04T12:48:45;15.13;;;8.60;;
23068;SDS011;11702;50.856;4.348;2023-02-04T12:51:11;14.07;;;8.93;;
23068;SDS011;11702;50.856;4.348;2023-02-04T12:53:37;17.30;;;8.75;;
23068;SDS011;11702;50.856;4.348;2023-02-04T12:56:02;17.42;;;9.05;;
23068;SDS011;11702;50.856;4.348;2023-02-04T12:58:28;12.65;;;8.52;;
23068;SDS011;11702;50.856;4.348;2023-02-04T13:00:54;16.00;;;9.15;;
23068;SDS011;11702;50.856;4.348;2023-02-04T13:03:20;12.80;;;8.52;;
23068;SDS011;11702;50.856;4.348;2023-02-04T13:05:47;19.77;;;9.82;;
23068;SDS011;11702;50.856;4.348;2023-02-04T13:08:13;16.27;;;9.68;;
23068;SDS011;11702;50.856;4.348;2023-02-04T13:10:39;15.82;;;9.05;;
23068;SDS011;11702;50.856;4.348;2023-02-04T13:13:04;15.07;;;9.93;;
23068;SDS011;11702;50.856;4.348;2023-02-04T13:15:30;14.40;;;9.00;;
23068;SDS011;11702;50.856;4.348;2023-02-04T13:17:56;17.83;;;9.32;;
23068;SDS011;11702;50.856;4.348;2023-02-04T13:20:21;15.32;;;8.88;;
23068;SDS011;11702;50.856;4.348;2023-02-04T13:22:47;15.30;;;8.77;;
23068;SDS011;11702;50.856;4.348;2023-02-04T13:25:13;15.07;;;10.35;;
23068;SDS011;11702;50.856;4.348;2023-02-04T13:27:38;14.25;;;9.57;;
23068;SDS011;11702;50.856;4.348;2023-02-04T13:30:05;16.92;;;9.93;;
23068;SDS011;11702;50.856;4.348;2023-02-04T13:32:33;19.65;;;10.38;;
23068;SDS011;11702;50.856;4.348;2023-02-04T13:34:59;15.63;;;9.63;;
23068;SDS011;11702;50.856;4.348;2023-02-04T13:37:28;18.27;;;10.48;;
23068;SDS011;11702;50.856;4.348;2023-02-04T13:39:53;16.55;;;9.93;;
23068;SDS011;11702;50.856;4.348;2023-02-04T13:42:19;19.20;;;10.85;;
23068;SDS011;11702;50.856;4.348;2023-02-04T13:44:45;12.50;;;9.70;;
23068;SDS011;11702;50.856;4.348;2023-02-04T13:47:11;21.92;;;13.00;;
23068;SDS011;11702;50.856;4.348;2023-02-04T13:49:36;19.73;;;11.68;;
23068;SDS011;11702;50.856;4.348;2023-02-04T13:52:02;22.38;;;13.57;;
23068;SDS011;11702;50.856;4.348;2023-02-04T13:54:28;20.75;;;11.95;;
23068;SDS011;11702;50.856;4.348;2023-02-04T13:56:53;22.83;;;12.98;;
23068;SDS011;11702;50.856;4.348;2023-02-04T13:59:19;24.85;;;13.70;;
23068;SDS011;11702;50.856;4.348;2023-02-04T14:01:44;35.10;;;18.90;;
23068;SDS011;11702;50.856;4.348;2023-02-04T14:04:10;30.30;;;18.17;;
23068;SDS011;11702;50.856;4.348;2023-02-04T14:06:36;32.20;;;18.45;;
23068;SDS011;11702;50.856;4.348;2023-02-04T14:09:07;30.30;;;20.02;;
23068;SDS011;11702;50.856;4.348;2023-02-04T14:11:37;34.88;;;19.77;;
23068;SDS011;11702;50.856;4.348;2023-02-04T14:14:04;34.00;;;19.67;;
23068;SDS011;11702;50.856;4.348;2023-02-04T14:16:30;38.58;;;21.67;;
23068;SDS011;11702;50.856;4.348;2023-02-04T14:18:55;35.38;;;22.08;;
23068;SDS011;11702;50.856;4.348;2023-02-04T14:21:21;38.70;;;22.27;;
23068;SDS011;11702;50.856;4.348;2023-02-04T14:23:57;36.05;;;22.58;;
23068;SDS011;11702;50.856;4.348;2023-02-04T14:26:22;34.97;;;22.02;;
23068;SDS011;11702;50.856;4.348;2023-02-04T14:28:48;39.03;;;23.08;;
23068;SDS011;11702;50.856;4.348;2023-02-04T14:31:14;43.28;;;26.75;;
23068;SDS011;11702;50.856;4.348;2023-02-04T14:33:39;39.80;;;23.67;;
23068;SDS011;11702;50.856;4.348;2023-02-04T14:36:05;38.20;;;22.55;;
23068;SDS011;11702;50.856;4.348;2023-02-04T14:38:31;32.97;;;20.42;;
23068;SDS011;11702;50.856;4.348;2023-02-04T14:40:58;34.33;;;21.98;;
23068;SDS011;11702;50.856;4.348;2023-02-04T14:43:24;33.78;;;20.90;;
23068;SDS011;11702;50.856;4.348;2023-02-04T14:45:50;35.75;;;22.33;;